Seven Springs, North Carolina
Current Conditions -  °F | °C
As of 3:58 PM on Thursday 18 Dec 2014 (Local Time) from KGSB Reporting Station
Scattered Clouds Scattered Clouds  
Wind Chill: 51°   Ceiling: Unl
Heat Index: 51°   Visibility: 10mi
Dew Point: 31°   Wind: 0mph
Humidity: 46%   Direction: NA
Pressure: 30.08"   Gusts: NA
Location:  35.23°N, 77.85°W
Report Text: KGSB 182058Z AUTO 00000KT 10SM SCT095 10/M01 A3008 RMK AO2 SLP190 T01031008 55013 $
Loading
Personal Weather Stations






























Interactive Weather Map New forecast layout! Learn more

10-Day Weather Forecast

Advertisements
Track Severe Weather on mobile